»·PEaware :: N157JL KBOI-KJAC

N157JL :: KBOI-KJAC

FLIGHT INFORMATION

Flight Status: Arrived
Operator: Privately registered:
United States
More flights under this callsign
Pilot: Anonymous 16594 (16594)
Aircraft: Unknown
(B60T)
More flights by this aircraft type
Origin: KBOI Boise Air Terminal/Gowen
United States
Destination: KJAC Jackson Hole
United States
More flights between these airports :: More routes between these airports
Route: +BOI3 ROARR DNW
File this flight plan on PilotEdge
Remarks:
Altitude:
(Current/Filed)
25,000ft
Speed:
(Current/Filed)
270kts
Departed: 24-Jul-18 06:15 PM
Arrived: 24-Jul-18 07:24 PM
Distance/Time
Traveled:
238nm/1:09
Distance/Time
To Go:
Arrived

Flight Plot

Page will automatically refresh every two minutes.

Flight plan parsing failed; only flown route is shown


Map Options




Map Legend


Flown Route
Filed Route
Departure Airport
Arrival Airport
Navaid (VOR, NDB)
Fix

Horizontal Profiles

Position Reports

Time Latitude Longitude Heading Altitude Ground
Speed
24-Jul-18 17:56 43.569990 -116.225488 184 2837ft 0kts
24-Jul-18 17:57 43.569953 -116.225488 174 2837ft 0kts
24-Jul-18 17:58 43.569949 -116.225487 174 2837ft 0kts
24-Jul-18 17:59 43.569945 -116.225487 174 2837ft 0kts
24-Jul-18 18:00 43.569941 -116.225486 174 2837ft 0kts
24-Jul-18 18:01 43.569937 -116.225485 174 2837ft 0kts
24-Jul-18 18:02 43.569933 -116.225485 173 2837ft 0kts
24-Jul-18 18:03 43.569945 -116.225427 348 2837ft 2kts
24-Jul-18 18:04 43.569499 -116.228019 210 2837ft 13kts
24-Jul-18 18:05 43.569414 -116.228098 212 2837ft 0kts
24-Jul-18 18:06 43.569411 -116.228101 212 2837ft 0kts
24-Jul-18 18:07 43.569408 -116.228104 212 2837ft 0kts
24-Jul-18 18:08 43.569404 -116.228107 212 2837ft 0kts
24-Jul-18 18:09 43.569401 -116.228110 212 2837ft 0kts
24-Jul-18 18:10 43.567889 -116.226401 116 2837ft 22kts
24-Jul-18 18:11 43.565087 -116.218085 115 2837ft 25kts
24-Jul-18 18:12 43.562428 -116.210258 115 2837ft 22kts
24-Jul-18 18:13 43.559829 -116.202708 147 2837ft 16kts
24-Jul-18 18:14 43.559391 -116.202705 203 2837ft 0kts
24-Jul-18 18:15 43.558770 -116.203445 295 2837ft 1kts
24-Jul-18 18:16 43.571597 -116.240163 293 3694ft 152kts
24-Jul-18 18:17 43.589270 -116.291347 294 6200ft 147kts
24-Jul-18 18:18 43.601324 -116.343546 245 8712ft 149kts
24-Jul-18 18:19 43.569690 -116.333777 109 11266ft 175kts
24-Jul-18 18:20 43.554609 -116.266246 112 13787ft 188kts
24-Jul-18 18:21 43.534769 -116.197334 115 15985ft 212kts
24-Jul-18 18:22 43.509526 -116.110163 114 16024ft 258kts
24-Jul-18 18:23 43.485245 -116.026157 115 18144ft 216kts
24-Jul-18 18:24 43.463664 -115.951932 117 20609ft 206kts
24-Jul-18 18:25 43.442499 -115.879318 118 23007ft 207kts
24-Jul-18 18:26 43.418386 -115.796994 118 24589ft 229kts
24-Jul-18 18:27 43.392031 -115.707547 117 25123ft 282kts
24-Jul-18 18:28 43.361036 -115.602229 116 25119ft 306kts
24-Jul-18 18:29 43.328590 -115.492458 116 25125ft 312kts
24-Jul-18 18:30 43.296623 -115.380613 106 25134ft 318kts
24-Jul-18 18:31 43.305915 -115.259189 80 25149ft 323kts
24-Jul-18 18:32 43.321766 -115.137502 80 25163ft 324kts
24-Jul-18 18:33 43.337259 -115.015744 80 25173ft 324kts
24-Jul-18 18:34 43.350084 -114.913928 80 25197ft 324kts
24-Jul-18 18:35 43.365347 -114.791696 80 25244ft 324kts
24-Jul-18 18:36 43.383080 -114.648238 80 25251ft 327kts
24-Jul-18 18:37 43.398143 -114.525187 81 25257ft 326kts
24-Jul-18 18:38 43.413110 -114.401745 81 25261ft 326kts
24-Jul-18 18:39 43.425446 -114.299138 81 25262ft 326kts
24-Jul-18 18:40 43.440231 -114.175400 81 25260ft 326kts
24-Jul-18 18:41 43.454741 -114.052218 81 25257ft 327kts
24-Jul-18 18:42 43.469236 -113.928146 81 25251ft 328kts
24-Jul-18 18:43 43.483584 -113.804193 81 25246ft 328kts
24-Jul-18 18:44 43.497797 -113.680176 81 25242ft 328kts
24-Jul-18 18:45 43.511884 -113.556046 81 25244ft 328kts
24-Jul-18 18:46 43.525817 -113.432036 81 25239ft 327kts
24-Jul-18 18:47 43.539621 -113.307884 81 25235ft 327kts
24-Jul-18 18:48 43.553274 -113.183848 81 25232ft 327kts
24-Jul-18 18:49 43.566802 -113.059657 81 25229ft 327kts
24-Jul-18 18:50 43.580151 -112.935820 81 25210ft 327kts
24-Jul-18 18:51 43.593376 -112.811834 81 25065ft 318kts
24-Jul-18 18:52 43.605048 -112.701162 81 24246ft 285kts
24-Jul-18 18:53 43.616559 -112.591275 81 23529ft 298kts
24-Jul-18 18:54 43.628058 -112.480209 81 23227ft 288kts
24-Jul-18 18:55 43.639255 -112.371122 81 23230ft 287kts
24-Jul-18 18:56 43.637796 -112.263684 116 22792ft 282kts
24-Jul-18 18:57 43.606033 -112.169435 118 21537ft 264kts
24-Jul-18 18:58 43.575628 -112.076012 117 20276ft 268kts
24-Jul-18 18:59 43.545314 -111.981777 117 19017ft 269kts
24-Jul-18 19:00 43.514895 -111.887350 117 17755ft 268kts
24-Jul-18 19:01 43.484693 -111.793896 116 16493ft 266kts
24-Jul-18 19:02 43.454648 -111.701274 116 15233ft 264kts
24-Jul-18 19:03 43.424767 -111.609394 116 13967ft 261kts
24-Jul-18 19:04 43.395880 -111.520925 116 13309ft 247kts
24-Jul-18 19:05 43.366698 -111.431861 116 12703ft 239kts
24-Jul-18 19:06 43.339275 -111.348463 116 12105ft 239kts
24-Jul-18 19:07 43.311971 -111.265708 116 11884ft 229kts
24-Jul-18 19:08 43.286041 -111.187335 116 11891ft 223kts
24-Jul-18 19:09 43.268663 -111.110773 104 11885ft 184kts
24-Jul-18 19:10 43.257587 -111.042618 104 11950ft 182kts
24-Jul-18 19:11 43.246504 -110.975260 104 11956ft 183kts
24-Jul-18 19:12 43.236692 -110.906158 108 11975ft 185kts
24-Jul-18 19:13 43.202663 -110.880404 212 11982ft 159kts
24-Jul-18 19:14 43.168293 -110.914677 263 11935ft 154kts
24-Jul-18 19:15 43.200957 -110.932850 13 11603ft 148kts
24-Jul-18 19:16 43.244344 -110.914011 14 11255ft 183kts
24-Jul-18 19:17 43.293866 -110.889829 16 10931ft 191kts
24-Jul-18 19:18 43.344600 -110.865276 14 10626ft 195kts
24-Jul-18 19:19 43.397903 -110.839520 15 9841ft 208kts
24-Jul-18 19:20 43.450946 -110.813853 14 9570ft 192kts
24-Jul-18 19:21 43.495934 -110.791929 13 8598ft 133kts
24-Jul-18 19:22 43.529811 -110.775453 17 7896ft 133kts
24-Jul-18 19:23 43.564282 -110.758244 18 7221ft 128kts
24-Jul-18 19:24 43.595632 -110.743483 16 6559ft 108kts
24-Jul-18 19:25 43.609121 -110.736161 111 6454ft 5kts
24-Jul-18 19:26 43.608342 -110.735678 199 6454ft 17kts
24-Jul-18 19:27 43.603707 -110.737966 200 6454ft 17kts
24-Jul-18 19:28 43.600877 -110.738419 109 6454ft 4kts
24-Jul-18 19:29 43.600781 -110.738046 108 6454ft 0kts
24-Jul-18 19:30 43.600781 -110.738046 108 6454ft 0kts

Navigation Log

Ident Type
Flight plan parsing failed, navigation log unavailable